createdAt,value
2017-10-12T00:02:03.581Z,12.2
2017-10-12T00:07:03.310Z,12.1
2017-10-12T00:12:03.141Z,12.1
2017-10-12T00:17:03.606Z,12.1
2017-10-12T00:22:02.689Z,12.0
2017-10-12T00:27:03.247Z,11.9
2017-10-12T00:32:02.933Z,11.9
2017-10-12T00:37:03.395Z,11.8
2017-10-12T00:42:02.795Z,11.7
2017-10-12T00:47:03.450Z,11.6
2017-10-12T00:52:03.389Z,11.5
2017-10-12T00:57:03.029Z,11.5
2017-10-12T01:02:03.505Z,11.5
2017-10-12T01:07:03.322Z,11.5
2017-10-12T01:12:02.865Z,11.5
2017-10-12T01:17:03.391Z,11.5
2017-10-12T01:22:03.310Z,11.6
2017-10-12T01:27:02.883Z,11.6
2017-10-12T01:32:03.445Z,11.7
2017-10-12T01:37:03.102Z,11.8
2017-10-12T01:42:03.584Z,11.9
2017-10-12T01:47:02.975Z,11.9
2017-10-12T01:52:02.834Z,12.0
2017-10-12T01:57:03.452Z,12.0
2017-10-12T02:02:03.099Z,11.9
2017-10-12T02:07:02.829Z,11.9
2017-10-12T02:12:03.486Z,11.9
2017-10-12T02:17:03.002Z,11.8
2017-10-12T02:22:03.210Z,11.6
2017-10-12T02:27:03.593Z,11.4
2017-10-12T02:32:03.271Z,11.4
2017-10-12T02:37:02.996Z,11.3
2017-10-12T02:42:03.019Z,11.1
2017-10-12T02:47:03.153Z,11.1
2017-10-12T02:52:03.308Z,11.0
2017-10-12T02:57:03.360Z,10.9
2017-10-12T03:02:03.541Z,10.9
2017-10-12T03:07:02.754Z,10.9
2017-10-12T03:12:03.012Z,10.9
2017-10-12T03:17:03.094Z,10.9
2017-10-12T03:22:03.239Z,10.9
2017-10-12T03:27:03.287Z,10.8
2017-10-12T03:32:03.411Z,10.8
2017-10-12T03:37:03.543Z,10.9
2017-10-12T03:42:03.556Z,10.8
2017-10-12T03:47:02.835Z,10.8
2017-10-12T03:52:02.829Z,10.7
2017-10-12T03:57:03.018Z,10.7
2017-10-12T04:02:03.160Z,10.7
2017-10-12T04:07:03.297Z,10.6
2017-10-12T04:12:03.572Z,10.5
2017-10-12T04:17:03.766Z,10.4
2017-10-12T04:22:02.925Z,10.3
2017-10-12T04:27:03.059Z,10.5
2017-10-12T04:32:03.144Z,10.5
2017-10-12T04:37:03.207Z,10.8
2017-10-12T04:42:03.225Z,11.0
2017-10-12T04:47:03.332Z,11.0
2017-10-12T04:52:03.376Z,11.1
2017-10-12T04:57:03.415Z,11.2
2017-10-12T05:02:03.759Z,11.5
2017-10-12T05:07:02.882Z,11.7
2017-10-12T05:12:03.140Z,12.0
2017-10-12T05:17:14.097Z,12.1
2017-10-12T05:22:03.626Z,12.1
2017-10-12T05:27:02.910Z,12.1
2017-10-12T05:32:13.729Z,12.1
2017-10-12T05:37:03.037Z,12.1
2017-10-12T05:42:03.627Z,12.0
2017-10-12T05:47:13.290Z,12.0
2017-10-12T05:52:03.436Z,12.1
2017-10-12T05:57:02.723Z,12.1
2017-10-12T06:02:13.366Z,12.1
2017-10-12T06:07:03.353Z,12.1
2017-10-12T06:12:02.774Z,12.2
2017-10-12T06:17:13.843Z,12.1
2017-10-12T06:22:02.761Z,12.4
2017-10-12T06:27:03.151Z,12.3
2017-10-12T06:32:13.747Z,12.5
2017-10-12T06:37:03.399Z,12.6
2017-10-12T06:42:02.691Z,13.2
2017-10-12T06:47:17.060Z,13.4
2017-10-12T06:52:03.233Z,13.6
2017-10-12T06:57:03.357Z,13.5
2017-10-12T07:02:16.649Z,14.0
2017-10-12T07:07:03.558Z,14.1
2017-10-12T07:12:02.970Z,14.1
2017-10-12T07:17:13.774Z,14.3
2017-10-12T07:22:03.158Z,14.3
2017-10-12T07:27:03.470Z,14.5
2017-10-12T07:32:17.179Z,14.4
2017-10-12T07:37:03.457Z,14.5
2017-10-12T07:42:02.565Z,14.6
2017-10-12T07:47:16.827Z,14.6
2017-10-12T07:52:02.611Z,15.0
2017-10-12T07:57:02.838Z,15.0
2017-10-12T08:02:17.408Z,15.3
2017-10-12T08:07:03.276Z,15.3
2017-10-12T08:12:03.420Z,15.7
2017-10-12T08:17:14.086Z,15.7
2017-10-12T08:22:03.240Z,15.7
2017-10-12T08:27:03.502Z,15.8
2017-10-12T08:32:13.220Z,16.0
2017-10-12T08:37:03.130Z,16.0
2017-10-12T08:42:03.398Z,16.1
2017-10-12T08:47:17.444Z,16.4
2017-10-12T08:52:03.255Z,16.5
2017-10-12T08:57:03.495Z,16.7
2017-10-12T09:02:17.493Z,17.1
2017-10-12T09:07:03.464Z,17.3
2017-10-12T09:12:02.803Z,17.5
2017-10-12T09:17:23.046Z,17.8
2017-10-12T09:22:03.233Z,18.1
2017-10-12T09:27:03.475Z,18.1
2017-10-12T09:32:12.990Z,18.4
2017-10-12T09:37:03.180Z,18.3
2017-10-12T09:42:03.383Z,18.2
2017-10-12T09:47:13.551Z,18.6
2017-10-12T09:52:02.806Z,18.6
2017-10-12T09:57:03.537Z,18.8
2017-10-12T10:02:13.254Z,18.8
2017-10-12T10:07:03.331Z,18.8
2017-10-12T10:12:02.845Z,19.0
2017-10-12T10:17:17.986Z,19.6
2017-10-12T10:22:02.881Z,19.9
2017-10-12T10:27:03.131Z,19.7
2017-10-12T10:32:17.212Z,19.6
2017-10-12T10:37:03.251Z,19.7
2017-10-12T10:42:03.429Z,19.6
2017-10-12T10:47:16.600Z,19.6
2017-10-12T10:52:03.278Z,20.0
2017-10-12T10:57:03.513Z,19.9
2017-10-12T11:02:16.877Z,20.1
2017-10-12T11:07:03.547Z,19.8
2017-10-12T11:12:02.941Z,19.8
2017-10-12T11:17:29.521Z,19.6
2017-10-12T11:22:03.309Z,19.1
2017-10-12T11:27:03.529Z,19.1
2017-10-12T11:32:17.183Z,19.1
2017-10-12T11:37:03.503Z,19.4
2017-10-12T11:42:03.397Z,19.8
2017-10-12T11:47:10.477Z,20.1
2017-10-12T11:52:03.067Z,20.2
2017-10-12T11:57:03.289Z,19.9
2017-10-12T12:02:18.082Z,19.8
2017-10-12T12:07:02.737Z,19.8
2017-10-12T12:12:03.127Z,19.6
2017-10-12T12:17:18.082Z,19.2
2017-10-12T12:22:03.345Z,19.1
2017-10-12T12:27:03.445Z,19.1
2017-10-12T12:32:23.181Z,19.1
2017-10-12T12:37:02.915Z,19.2
2017-10-12T12:42:03.161Z,19.5
2017-10-12T12:47:17.368Z,19.9
2017-10-12T12:52:03.159Z,20.6
2017-10-12T12:57:03.539Z,21.6
2017-10-12T13:02:13.616Z,22.2
2017-10-12T13:07:03.548Z,22.1
2017-10-12T13:12:02.967Z,21.1
2017-10-12T13:17:13.727Z,20.9
2017-10-12T13:22:03.592Z,20.8
2017-10-12T13:27:03.522Z,21.0
2017-10-12T13:32:13.615Z,21.2
2017-10-12T13:37:03.248Z,21.0
2017-10-12T13:42:03.458Z,20.7
2017-10-12T13:47:14.081Z,20.3
2017-10-12T13:52:03.067Z,19.9
2017-10-12T13:57:03.360Z,19.6
2017-10-12T14:02:17.958Z,19.2
2017-10-12T14:07:03.313Z,19.2
2017-10-12T14:12:02.738Z,19.2
2017-10-12T14:17:17.995Z,20.0
2017-10-12T14:22:03.259Z,20.0
2017-10-12T14:27:03.468Z,20.5
2017-10-12T14:32:28.575Z,23.4
2017-10-12T14:37:03.016Z,23.3
2017-10-12T14:42:03.254Z,22.2
2017-10-12T14:47:18.030Z,20.9
2017-10-12T14:52:03.496Z,20.8
2017-10-12T14:57:02.641Z,20.3
2017-10-12T15:02:17.452Z,20.7
2017-10-12T15:07:02.757Z,20.9
2017-10-12T15:12:03.091Z,20.9
2017-10-12T15:17:13.775Z,22.4
2017-10-12T15:22:02.725Z,23.3
2017-10-12T15:27:02.951Z,23.3
2017-10-12T15:32:13.788Z,24.0
2017-10-12T15:37:02.732Z,23.5
2017-10-12T15:42:02.979Z,22.8
2017-10-12T15:47:17.595Z,21.5
2017-10-12T15:52:03.371Z,21.5
2017-10-12T15:57:03.571Z,21.3
2017-10-12T16:02:17.468Z,23.1
2017-10-12T16:07:03.433Z,23.1
2017-10-12T16:12:02.803Z,21.3
2017-10-12T16:17:29.290Z,21.2
2017-10-12T16:22:03.473Z,20.4
2017-10-12T16:27:03.667Z,19.7
2017-10-12T16:32:13.516Z,19.3
2017-10-12T16:37:03.377Z,18.8
2017-10-12T16:42:03.625Z,18.8
2017-10-12T16:47:13.697Z,18.2
2017-10-12T16:52:03.226Z,18.2
2017-10-12T16:57:03.265Z,18.0
2017-10-12T17:02:12.830Z,17.5
2017-10-12T17:07:02.745Z,17.4
2017-10-12T17:12:03.095Z,17.0
2017-10-12T17:17:10.420Z,17.0
2017-10-12T17:22:03.221Z,16.8
2017-10-12T17:27:03.390Z,16.7
2017-10-12T17:32:04.517Z,16.5
2017-10-12T17:37:03.590Z,16.5
2017-10-12T17:42:02.774Z,16.4
2017-10-12T17:47:03.134Z,16.1
2017-10-12T17:52:03.117Z,16.1
2017-10-12T17:57:03.077Z,16.1
2017-10-12T18:02:03.263Z,16.0
2017-10-12T18:07:03.497Z,15.9
2017-10-12T18:17:03.085Z,15.7
2017-10-12T18:22:03.245Z,15.6
2017-10-12T18:32:03.340Z,15.5
2017-10-12T18:37:03.358Z,15.5
2017-10-12T18:42:03.442Z,15.3
2017-10-12T18:47:03.613Z,15.0
2017-10-12T18:52:02.730Z,15.0
2017-10-12T18:57:02.870Z,14.9
2017-10-12T19:02:02.990Z,14.7
2017-10-12T19:07:03.122Z,14.5
2017-10-12T19:12:03.312Z,14.5
2017-10-12T19:17:03.446Z,14.4
2017-10-12T19:22:03.596Z,14.0
2017-10-12T19:27:03.691Z,14.0
2017-10-12T19:32:02.902Z,13.9
2017-10-12T19:37:03.102Z,13.7
2017-10-12T19:42:03.092Z,13.8
2017-10-12T19:47:03.502Z,13.8
2017-10-12T19:52:03.366Z,13.6
2017-10-12T19:57:03.430Z,13.5
2017-10-12T20:02:03.538Z,13.4
2017-10-12T20:07:02.879Z,13.2
2017-10-12T20:12:03.174Z,13.2
2017-10-12T20:17:03.222Z,13.0
2017-10-12T20:22:03.346Z,13.0
2017-10-12T20:27:03.421Z,13.0
2017-10-12T20:32:03.507Z,13.0
2017-10-12T20:37:03.633Z,13.0
2017-10-12T20:42:17.731Z,13.0
2017-10-12T20:47:02.862Z,13.0
2017-10-12T20:52:03.018Z,12.9
2017-10-12T20:57:03.176Z,12.8
2017-10-12T21:02:03.265Z,12.9
2017-10-12T21:07:03.465Z,12.9
2017-10-12T21:12:02.729Z,12.8
2017-10-12T21:17:03.067Z,12.8
2017-10-12T21:22:03.128Z,12.8
2017-10-12T21:27:03.152Z,12.7
2017-10-12T21:32:03.259Z,12.6
2017-10-12T21:37:03.398Z,12.5
2017-10-12T21:42:03.441Z,12.4
2017-10-12T21:47:03.416Z,12.4
2017-10-12T21:52:02.695Z,12.4
2017-10-12T21:57:02.881Z,12.3
2017-10-12T22:02:03.152Z,12.2
2017-10-12T22:07:03.084Z,12.2
2017-10-12T22:12:03.146Z,12.0
2017-10-12T22:22:03.298Z,11.9
2017-10-12T22:27:03.333Z,11.9
2017-10-12T22:32:02.962Z,11.8
2017-10-12T22:37:03.061Z,11.7
2017-10-12T22:42:03.375Z,11.7
2017-10-12T22:47:02.992Z,11.6
2017-10-12T22:52:02.829Z,11.5
2017-10-12T22:57:03.279Z,11.5
2017-10-12T23:02:02.870Z,11.3
2017-10-12T23:07:03.080Z,11.2
2017-10-12T23:12:02.703Z,11.2
2017-10-12T23:17:03.460Z,11.1
2017-10-12T23:22:02.856Z,11.1
2017-10-12T23:27:03.515Z,11.1
2017-10-12T23:32:03.270Z,11.2
2017-10-12T23:37:03.069Z,11.3
2017-10-12T23:42:02.750Z,11.2
2017-10-12T23:47:03.330Z,11.0
2017-10-12T23:52:03.270Z,10.9
2017-10-12T23:57:02.993Z,10.8
